Flight Track Log - Related Links

Times and Time Zones

All times are in EDT time to prevent confusion due to time zone crossing. See the N70AG flight status page for this flight to view local times or setup timezone preferences in your user account.

Time Position Orientation Groundspeed Altitude Reporting Facility
EDT Latitude Longitude Course Direction KTS MPH feet Rate Location/Type
Sun 05:39:03 PM 32.8000 -117.3167 312° West 274 315 7,100  Level Southern California TRACON
Sun 05:40:03 PM 32.8500 -117.4000 306° West 302 348 10,000 1,450 Climbing Southern California TRACON
Sun 05:41:03 PM 32.9000 -117.4833 306° West 301 346 10,000  Level Southern California TRACON
Sun 05:42:12 PM 32.9661 -117.5367 326° Northwest 316 364 10,000  Level Los Angeles Center
Sun 05:43:00 PM 33.0770 -117.4880 324° Northwest  Level FlightAware Approximate
Sun 05:43:14 PM 33.0339 -117.6108 317° Northwest 330 380 10,000  Level Los Angeles Center
Sun 05:44:17 PM 33.0906 -117.6942 309° West 326 375 10,000 -96 Level Los Angeles Center
Sun 05:45:19 PM 33.1500 -117.7889 307° West 302 348 9,800 -919 Descending Los Angeles Center
Sun 05:46:21 PM 33.2142 -117.8481 322° Northwest 294 338 8,100 -1,597 Descending Los Angeles Center
Sun 05:47:23 PM 33.2889 -117.8750 343° North 282 325 6,500 -1,016 Descending Los Angeles Center
Sun 05:48:25 PM 33.3617 -117.9008 343° North 276 318 6,000 -242 Descending Los Angeles Center
Sun 05:49:27 PM 33.4339 -117.9269 343° North 274 315 6,000  Level Los Angeles Center
Sun 05:50:29 PM 33.4867 -117.9908 315° West 273 314 6,000  Level Los Angeles Center
Sun 05:51:31 PM 33.5550 -118.0625 319° Northwest 272 313 6,000  Level Los Angeles Center
Sun 05:52:33 PM 33.6144 -118.1203 321° Northwest 273 314 6,000  Level Los Angeles Center
Sun 05:53:35 PM 33.6728 -118.1769 321° Northwest 272 313 6,000  Level Los Angeles Center
Sun 05:54:38 PM 33.7306 -118.2336 321° Northwest 271 312 6,000  Level Los Angeles Center
Sun 05:55:40 PM 33.7986 -118.2997 321° Northwest 271 312 6,000 -387 Level Los Angeles Center
Sun 05:56:42 PM 33.8636 -118.3425 331° Northwest 271 312 5,200 -484 Descending Los Angeles Center
Sun 05:57:44 PM 33.9286 -118.3847 332° Northwest 268 308 5,000 -97 Descending Los Angeles Center
Sun 05:58:46 PM 33.9911 -118.4322 328° Northwest 266 306 5,000  Level Los Angeles Center
Sun 05:59:48 PM 34.0569 -118.4967 321° Northwest 271 312 5,000  Level Los Angeles Center
Sun 06:00:50 PM 34.1219 -118.5281 338° Northwest 237 273 5,000 -484 Level Los Angeles Center
Sun 06:01:52 PM 34.1817 -118.5417 349° North 222 255 4,000 -1,161 Descending Los Angeles Center
Sun 06:02:54 PM 34.2350 -118.5367 North 198 228 2,600 -1,065 Descending Los Angeles Center
Sun 06:03:56 PM 34.2561 -118.4983 56° Northeast 183 211 1,800 -871 Descending Los Angeles Center
Sun 06:04:58 PM 34.2158 -118.4919 173° South 139 160 800 -968 Descending Los Angeles Center
Sun 06:06:00 PM 34.2098 -118.4900 129° Southeast  Level Estimated

Login

Don't have an account? Register now (free) for customized features, flight alerts, and more!